Time;durP1;ratioP1;P1;durP2;ratioP2;P2;SDS_P1;SDS_P2;PMS_P1;PMS_P2;Temp;Humidity;BMP_temperature;BMP_pressure;BME280_temperature;BME280_humidity;BME280_pressure;Samples;Min_cycle;Max_cycle;Signal;HPM_P1;HPM_P2
2021/06/16 00:01:13;;;;;;;16.00;3.63;;;;;;;;;;6284888;22;20035;-86
2021/06/16 00:03:40;;;;;;;11.75;2.75;;;;;;;;;;6286193;22;20114;-86
2021/06/16 00:06:07;;;;;;;9.38;2.88;;;;;;;;;;6286399;22;20038;-86
2021/06/16 00:08:33;;;;;;;9.18;2.75;;;;;;;;;;6285394;22;20077;-86
2021/06/16 00:11:00;;;;;;;7.90;2.97;;;;;;;;;;6264969;23;20020;-86
2021/06/16 00:13:27;;;;;;;8.27;2.78;;;;;;;;;;6263049;22;20023;-86
2021/06/16 00:15:54;;;;;;;15.55;3.67;;;;;;;;;;6254574;23;20028;-86
2021/06/16 00:18:20;;;;;;;15.60;3.13;;;;;;;;;;6253492;23;20024;-86
2021/06/16 00:20:47;;;;;;;14.38;3.50;;;;;;;;;;6253729;22;20039;-86
2021/06/16 00:23:13;;;;;;;15.48;3.15;;;;;;;;;;6253194;23;20046;-86
2021/06/16 00:25:40;;;;;;;14.90;3.20;;;;;;;;;;6254575;23;20294;-86
2021/06/16 00:28:06;;;;;;;9.52;3.63;;;;;;;;;;6254280;23;20405;-86
2021/06/16 00:30:33;;;;;;;17.65;3.58;;;;;;;;;;6254370;23;20035;-86
2021/06/16 00:32:59;;;;;;;14.82;3.58;;;;;;;;;;6254849;23;20390;-86
2021/06/16 00:35:26;;;;;;;9.32;3.63;;;;;;;;;;6254639;23;20164;-86
2021/06/16 00:37:53;;;;;;;12.52;3.45;;;;;;;;;;6255475;23;20084;-86
2021/06/16 00:40:23;;;;;;;16.52;4.28;;;;;;;;;;6253992;23;20024;-86
2021/06/16 00:42:50;;;;;;;9.55;3.42;;;;;;;;;;6254415;23;20026;-85
2021/06/16 00:45:19;;;;;;;14.45;3.90;;;;;;;;;;6253681;23;20370;-85
2021/06/16 00:47:46;;;;;;;10.63;3.00;;;;;;;;;;6255775;22;20076;-85
2021/06/16 00:50:13;;;;;;;12.15;3.40;;;;;;;;;;6254599;23;20028;-85
2021/06/16 00:52:40;;;;;;;8.05;3.30;;;;;;;;;;6255483;23;20020;-85
2021/06/16 00:55:07;;;;;;;14.70;3.65;;;;;;;;;;6254716;23;20114;-86
2021/06/16 00:57:34;;;;;;;12.27;3.67;;;;;;;;;;6264253;22;20028;-85
2021/06/16 01:00:11;;;;;;;14.98;3.42;;;;;;;;;;6259676;23;20031;-86
2021/06/16 01:02:46;;;;;;;13.00;4.20;;;;;;;;;;6232145;23;20024;-86
2021/06/16 01:05:14;;;;;;;14.70;3.83;;;;;;;;;;6255810;22;20194;-86
2021/06/16 01:07:41;;;;;;;7.30;3.00;;;;;;;;;;6254065;22;20050;-86
2021/06/16 01:10:15;;;;;;;11.27;3.33;;;;;;;;;;6267561;22;20054;-85
2021/06/16 01:13:09;;;;;;;11.13;3.83;;;;;;;;;;6271955;22;20090;-86
2021/06/16 01:16:02;;;;;;;9.43;3.10;;;;;;;;;;6234535;22;20024;-86
2021/06/16 01:18:31;;;;;;;7.15;2.88;;;;;;;;;;6258458;22;20388;-85
2021/06/16 01:20:59;;;;;;;10.95;3.00;;;;;;;;;;6290373;22;20066;-85
2021/06/16 01:23:37;;;;;;;10.70;3.30;;;;;;;;;;6287578;22;20024;-86
2021/06/16 01:26:04;;;;;;;15.90;3.33;;;;;;;;;;6259575;22;20338;-85
2021/06/16 01:28:32;;;;;;;8.82;3.25;;;;;;;;;;6259703;22;20027;-85
2021/06/16 01:30:59;;;;;;;10.77;3.28;;;;;;;;;;6260153;22;20024;-85
2021/06/16 01:33:26;;;;;;;9.15;3.05;;;;;;;;;;6260646;22;20030;-85
2021/06/16 01:35:55;;;;;;;9.65;3.47;;;;;;;;;;6286220;22;20019;-85
2021/06/16 01:38:22;;;;;;;15.00;3.28;;;;;;;;;;6261059;22;20031;-85
2021/06/16 01:40:50;;;;;;;11.68;3.17;;;;;;;;;;6259506;22;20027;-85
2021/06/16 01:43:17;;;;;;;12.18;3.45;;;;;;;;;;6260332;22;20054;-85
2021/06/16 01:45:45;;;;;;;12.77;3.50;;;;;;;;;;6286521;22;20027;-85
2021/06/16 01:48:14;;;;;;;9.93;3.10;;;;;;;;;;6257546;22;20039;-85
2021/06/16 01:50:41;;;;;;;12.77;3.78;;;;;;;;;;6258905;22;20023;-85
2021/06/16 01:53:08;;;;;;;12.75;3.85;;;;;;;;;;6259429;22;20034;-86
2021/06/16 01:55:35;;;;;;;15.15;4.07;;;;;;;;;;6259950;22;20024;-85
2021/06/16 01:58:02;;;;;;;13.90;4.18;;;;;;;;;;6260546;22;20121;-86
2021/06/16 02:00:30;;;;;;;8.65;3.75;;;;;;;;;;6262151;22;20023;-86
2021/06/16 02:02:57;;;;;;;14.00;4.18;;;;;;;;;;6261312;22;20079;-85
2021/06/16 02:05:24;;;;;;;13.13;3.75;;;;;;;;;;6271480;22;20016;-85
2021/06/16 02:08:02;;;;;;;11.43;4.28;;;;;;;;;;6275620;22;20015;-86
2021/06/16 02:10:33;;;;;;;9.10;3.55;;;;;;;;;;6269818;22;20074;-85
2021/06/16 02:13:01;;;;;;;10.23;3.35;;;;;;;;;;6291602;22;20024;-84
2021/06/16 02:15:31;;;;;;;9.73;3.40;;;;;;;;;;6267840;22;20054;-84
2021/06/16 02:17:58;;;;;;;6.75;3.72;;;;;;;;;;6267872;22;20024;-84
2021/06/16 02:20:24;;;;;;;12.00;3.63;;;;;;;;;;6262421;22;20081;-85
2021/06/16 02:22:51;;;;;;;11.93;3.42;;;;;;;;;;6264226;22;20368;-85
2021/06/16 02:25:20;;;;;;;11.70;4.25;;;;;;;;;;6263304;22;20024;-85
2021/06/16 02:27:47;;;;;;;10.27;3.95;;;;;;;;;;6262237;22;20016;-85
2021/06/16 02:30:14;;;;;;;13.02;3.88;;;;;;;;;;6262515;22;20027;-85
2021/06/16 02:32:42;;;;;;;11.00;4.00;;;;;;;;;;6260890;22;20078;-84
2021/06/16 02:35:10;;;;;;;8.40;4.00;;;;;;;;;;6284654;22;20020;-85
2021/06/16 02:37:38;;;;;;;12.52;4.60;;;;;;;;;;6288337;22;20028;-85
2021/06/16 02:40:07;;;;;;;16.95;4.30;;;;;;;;;;6285356;22;20085;-85
2021/06/16 02:42:36;;;;;;;12.52;4.78;;;;;;;;;;6286111;22;20047;-85
2021/06/16 02:45:04;;;;;;;16.15;4.38;;;;;;;;;;6260618;22;20416;-85
2021/06/16 02:47:32;;;;;;;15.32;4.03;;;;;;;;;;6285908;22;20466;-85
2021/06/16 02:50:01;;;;;;;12.73;4.45;;;;;;;;;;6258562;22;20027;-85
2021/06/16 02:52:28;;;;;;;10.57;4.22;;;;;;;;;;6257742;22;20024;-85
2021/06/16 02:54:58;;;;;;;13.73;4.53;;;;;;;;;;6284373;22;20328;-85
2021/06/16 02:57:26;;;;;;;10.68;4.60;;;;;;;;;;6291936;22;20058;-85
2021/06/16 02:59:56;;;;;;;11.65;4.43;;;;;;;;;;6264152;22;20023;-85
2021/06/16 03:02:25;;;;;;;10.18;4.50;;;;;;;;;;6292475;22;20024;-85
2021/06/16 03:04:52;;;;;;;14.13;4.38;;;;;;;;;;6261369;22;20040;-85
2021/06/16 03:07:19;;;;;;;7.95;4.55;;;;;;;;;;6261391;22;20031;-85
2021/06/16 03:09:46;;;;;;;15.13;4.78;;;;;;;;;;6259474;22;20024;-85
2021/06/16 03:12:14;;;;;;;9.65;4.10;;;;;;;;;;6285241;22;20107;-85
2021/06/16 03:14:41;;;;;;;10.75;3.95;;;;;;;;;;6259811;22;20042;-85
2021/06/16 03:17:09;;;;;;;10.77;4.75;;;;;;;;;;6286518;22;20071;-85
2021/06/16 03:19:37;;;;;;;9.20;4.85;;;;;;;;;;6285994;22;20027;-86
2021/06/16 03:22:04;;;;;;;7.38;3.92;;;;;;;;;;6285225;22;20053;-86
2021/06/16 03:24:32;;;;;;;8.38;5.10;;;;;;;;;;6258982;22;20027;-85
2021/06/16 03:26:59;;;;;;;13.88;5.10;;;;;;;;;;6260751;22;20393;-85
2021/06/16 03:29:28;;;;;;;11.20;5.10;;;;;;;;;;6260669;22;20024;-85
2021/06/16 03:31:55;;;;;;;9.98;5.38;;;;;;;;;;6286140;22;20024;-85
2021/06/16 03:34:22;;;;;;;16.08;5.07;;;;;;;;;;6286358;22;20019;-85
2021/06/16 03:36:50;;;;;;;7.55;4.22;;;;;;;;;;6259557;22;20389;-84
2021/06/16 03:39:17;;;;;;;12.15;4.70;;;;;;;;;;6261010;22;20059;-84
2021/06/16 03:41:44;;;;;;;12.73;4.55;;;;;;;;;;6272684;22;20072;-85
2021/06/16 03:44:11;;;;;;;13.38;5.10;;;;;;;;;;6277217;22;20016;-85
2021/06/16 03:46:39;;;;;;;13.60;5.57;;;;;;;;;;6303260;22;20023;-84
2021/06/16 03:49:09;;;;;;;11.98;4.68;;;;;;;;;;6303542;22;20062;-85
2021/06/16 03:51:36;;;;;;;11.30;4.32;;;;;;;;;;6276337;22;20050;-85
2021/06/16 03:54:11;;;;;;;9.88;4.38;;;;;;;;;;6275903;22;20024;-86
2021/06/16 03:56:41;;;;;;;7.90;4.25;;;;;;;;;;6264961;22;20019;-85
2021/06/16 03:59:08;;;;;;;10.93;4.55;;;;;;;;;;6288129;22;20034;-85
2021/06/16 04:01:40;;;;;;;13.27;4.82;;;;;;;;;;6287150;22;20027;-86
2021/06/16 04:04:10;;;;;;;7.38;4.03;;;;;;;;;;6264010;22;20027;-86
2021/06/16 04:06:44;;;;;;;11.32;4.10;;;;;;;;;;6266724;22;20024;-85
2021/06/16 04:09:11;;;;;;;10.10;3.78;;;;;;;;;;6290315;22;20071;-86
2021/06/16 04:11:39;;;;;;;14.18;3.85;;;;;;;;;;6287959;22;20386;-86
2021/06/16 04:14:06;;;;;;;16.65;4.32;;;;;;;;;;6262463;22;20019;-84
2021/06/16 04:16:33;;;;;;;12.93;3.00;;;;;;;;;;6261628;22;20057;-84
2021/06/16 04:19:00;;;;;;;10.50;3.17;;;;;;;;;;6285532;22;20076;-84
2021/06/16 04:21:26;;;;;;;9.35;3.33;;;;;;;;;;6284604;22;20024;-85
2021/06/16 04:23:53;;;;;;;9.70;3.28;;;;;;;;;;6259678;22;20035;-85
2021/06/16 04:26:23;;;;;;;8.80;3.30;;;;;;;;;;6258889;22;20290;-85
2021/06/16 04:28:49;;;;;;;12.95;3.25;;;;;;;;;;6286242;22;20043;-86
2021/06/16 04:31:16;;;;;;;10.45;2.95;;;;;;;;;;6257366;22;20028;-86
2021/06/16 04:33:44;;;;;;;9.95;3.10;;;;;;;;;;6260190;22;20052;-85
2021/06/16 04:36:10;;;;;;;8.75;2.92;;;;;;;;;;6259402;22;20071;-85
2021/06/16 04:38:37;;;;;;;9.20;3.00;;;;;;;;;;6283722;22;20224;-85
2021/06/16 04:41:03;;;;;;;12.32;3.20;;;;;;;;;;6258092;22;20238;-85
2021/06/16 04:43:30;;;;;;;11.88;2.88;;;;;;;;;;6258564;22;20098;-84
2021/06/16 04:45:57;;;;;;;9.85;2.97;;;;;;;;;;6262221;22;20059;-85
2021/06/16 04:48:23;;;;;;;8.57;2.85;;;;;;;;;;6258157;22;20023;-86
2021/06/16 04:50:50;;;;;;;11.60;2.72;;;;;;;;;;6284700;22;20033;-86
2021/06/16 04:53:16;;;;;;;9.55;2.88;;;;;;;;;;6286501;22;20027;-85
2021/06/16 04:55:43;;;;;;;11.48;3.10;;;;;;;;;;6256892;22;20024;-85
2021/06/16 04:58:10;;;;;;;12.48;2.83;;;;;;;;;;6284167;22;20443;-85
2021/06/16 05:00:36;;;;;;;6.75;2.17;;;;;;;;;;6286986;22;20024;-85
2021/06/16 05:03:03;;;;;;;9.40;2.90;;;;;;;;;;6260644;22;20027;-85
2021/06/16 05:05:30;;;;;;;8.73;2.78;;;;;;;;;;6259824;22;20024;-84
2021/06/16 05:07:59;;;;;;;7.75;2.70;;;;;;;;;;6253961;22;20023;-85
2021/06/16 05:10:26;;;;;;;7.30;2.20;;;;;;;;;;6250625;23;20028;-84
2021/06/16 05:12:52;;;;;;;9.35;2.95;;;;;;;;;;6250728;23;20216;-84
2021/06/16 05:15:19;;;;;;;9.43;2.58;;;;;;;;;;6253479;23;20431;-85
2021/06/16 05:17:47;;;;;;;12.15;2.40;;;;;;;;;;6249988;22;20024;-85
2021/06/16 05:20:17;;;;;;;7.30;2.15;;;;;;;;;;6251042;23;20035;-85
2021/06/16 05:22:48;;;;;;;7.63;2.35;;;;;;;;;;6262191;22;20016;-86
2021/06/16 05:25:15;;;;;;;9.35;2.55;;;;;;;;;;6261202;23;20094;-86
2021/06/16 05:27:42;;;;;;;11.15;2.47;;;;;;;;;;6262029;22;20135;-85
2021/06/16 05:30:13;;;;;;;8.00;2.50;;;;;;;;;;6263617;22;20008;-85
2021/06/16 05:32:40;;;;;;;6.97;2.13;;;;;;;;;;6261429;23;20050;-85
2021/06/16 05:35:07;;;;;;;7.78;1.77;;;;;;;;;;6251635;23;20024;-85
2021/06/16 05:37:59;;;;;;;13.80;2.78;;;;;;;;;;6249654;23;20434;-85
2021/06/16 05:40:28;;;;;;;8.25;1.90;;;;;;;;;;6250816;23;20024;-84
2021/06/16 05:42:55;;;;;;;12.50;1.83;;;;;;;;;;6253163;22;20028;-85
2021/06/16 05:45:28;;;;;;;9.05;2.22;;;;;;;;;;6249846;23;20024;-85
2021/06/16 05:47:55;;;;;;;4.70;1.90;;;;;;;;;;6247705;22;20229;-84
2021/06/16 05:50:22;;;;;;;7.47;1.73;;;;;;;;;;6249564;23;20074;-85
2021/06/16 05:52:49;;;;;;;4.90;1.75;;;;;;;;;;6254836;22;20072;-85
2021/06/16 05:55:16;;;;;;;5.90;1.92;;;;;;;;;;6256152;23;20042;-84
2021/06/16 05:57:43;;;;;;;6.47;1.73;;;;;;;;;;6248754;23;20020;-85
2021/06/16 06:00:11;;;;;;;10.05;1.77;;;;;;;;;;6247476;23;20024;-86
2021/06/16 06:02:43;;;;;;;10.00;1.70;;;;;;;;;;6245196;23;20028;-85
2021/06/16 06:05:12;;;;;;;13.52;1.75;;;;;;;;;;6247748;23;20024;-85
2021/06/16 06:07:39;;;;;;;7.68;1.88;;;;;;;;;;6253659;22;20043;-85
2021/06/16 06:10:06;;;;;;;8.35;1.67;;;;;;;;;;6251783;22;20208;-85
2021/06/16 06:12:36;;;;;;;6.70;1.65;;;;;;;;;;6255165;23;20058;-85
2021/06/16 06:15:04;;;;;;;9.48;2.42;;;;;;;;;;6253049;22;20024;-85
2021/06/16 06:17:30;;;;;;;11.35;1.38;;;;;;;;;;6250316;23;20024;-85
2021/06/16 06:19:57;;;;;;;9.57;2.00;;;;;;;;;;6248389;23;20255;-86
2021/06/16 06:22:24;;;;;;;5.53;1.50;;;;;;;;;;6250608;23;20354;-85
2021/06/16 06:24:51;;;;;;;7.68;1.50;;;;;;;;;;6252181;22;20028;-84
2021/06/16 06:27:17;;;;;;;11.18;2.10;;;;;;;;;;6247990;23;20099;-84
2021/06/16 06:29:44;;;;;;;7.65;1.48;;;;;;;;;;6250402;23;20024;-86
2021/06/16 06:32:17;;;;;;;13.25;2.20;;;;;;;;;;6250146;23;20111;-85
2021/06/16 06:34:43;;;;;;;7.05;1.83;;;;;;;;;;6250231;23;20250;-87
2021/06/16 06:37:10;;;;;;;10.68;1.52;;;;;;;;;;6251503;23;20035;-86
2021/06/16 06:39:55;;;;;;;7.78;1.75;;;;;;;;;;6254882;23;20067;-86
2021/06/16 06:42:22;;;;;;;8.68;1.58;;;;;;;;;;6254120;22;20031;-86
2021/06/16 06:44:48;;;;;;;6.97;1.20;;;;;;;;;;6253407;23;20023;-87
2021/06/16 06:47:27;;;;;;;5.80;1.35;;;;;;;;;;6250726;22;20032;-87
2021/06/16 06:49:54;;;;;;;7.70;1.30;;;;;;;;;;6255603;22;20028;-88
2021/06/16 06:52:22;;;;;;;7.22;1.55;;;;;;;;;;6251208;23;20034;-87
2021/06/16 06:54:48;;;;;;;8.80;1.30;;;;;;;;;;6249962;23;20024;-87
2021/06/16 06:57:27;;;;;;;4.47;1.35;;;;;;;;;;6251653;22;20024;-87
2021/06/16 06:59:54;;;;;;;4.53;1.15;;;;;;;;;;6246425;22;20019;-87
2021/06/16 07:02:21;;;;;;;7.63;1.73;;;;;;;;;;6244970;23;20215;-87
2021/06/16 07:04:51;;;;;;;7.20;1.25;;;;;;;;;;6247604;23;20028;-87
2021/06/16 07:07:17;;;;;;;9.07;1.77;;;;;;;;;;6254945;22;20027;-87
2021/06/16 07:09:46;;;;;;;8.35;1.38;;;;;;;;;;6252388;22;20035;-87
2021/06/16 07:12:14;;;;;;;9.32;1.83;;;;;;;;;;6256734;22;20087;-87
2021/06/16 07:14:41;;;;;;;5.50;1.27;;;;;;;;;;6255119;22;20089;-87
2021/06/16 07:17:07;;;;;;;5.68;1.30;;;;;;;;;;6255196;22;20027;-88
2021/06/16 07:19:56;;;;;;;5.38;1.42;;;;;;;;;;6262143;22;20074;-86
2021/06/16 07:22:23;;;;;;;5.07;1.58;;;;;;;;;;6259860;22;20075;-87
2021/06/16 07:24:50;;;;;;;8.02;1.35;;;;;;;;;;6281318;22;20035;-87
2021/06/16 07:27:19;;;;;;;5.22;1.25;;;;;;;;;;6255699;22;20078;-87
2021/06/16 07:29:49;;;;;;;8.10;1.30;;;;;;;;;;6260646;22;20027;-87
2021/06/16 07:32:17;;;;;;;8.18;1.95;;;;;;;;;;6287177;22;20056;-87
2021/06/16 07:34:44;;;;;;;5.30;1.60;;;;;;;;;;6285076;22;20046;-87
2021/06/16 07:37:11;;;;;;;5.05;1.42;;;;;;;;;;6257687;22;20301;-86
2021/06/16 07:39:38;;;;;;;9.80;1.40;;;;;;;;;;6287789;22;20083;-87
2021/06/16 07:42:05;;;;;;;5.68;1.98;;;;;;;;;;6285362;22;20023;-86
2021/06/16 07:44:35;;;;;;;8.85;1.67;;;;;;;;;;6288102;22;20027;-87
2021/06/16 07:47:02;;;;;;;4.35;1.50;;;;;;;;;;6287689;22;20079;-87
2021/06/16 07:49:28;;;;;;;6.78;1.63;;;;;;;;;;6258471;22;20024;-86
2021/06/16 07:51:58;;;;;;;3.80;1.27;;;;;;;;;;6286096;22;20024;-86
2021/06/16 07:54:25;;;;;;;6.40;1.17;;;;;;;;;;6286057;22;20024;-86
2021/06/16 07:56:54;;;;;;;7.38;1.55;;;;;;;;;;6259883;22;20216;-86
2021/06/16 07:59:21;;;;;;;8.85;1.75;;;;;;;;;;6260020;22;20078;-86
2021/06/16 08:01:54;;;;;;;5.38;1.40;;;;;;;;;;6282938;22;20297;-88
2021/06/16 08:04:24;;;;;;;8.98;1.40;;;;;;;;;;6260615;22;20027;-87
2021/06/16 08:06:51;;;;;;;5.88;1.80;;;;;;;;;;6257555;22;20229;-85
2021/06/16 08:09:18;;;;;;;6.18;1.50;;;;;;;;;;6279089;22;20016;-86
2021/06/16 08:11:44;;;;;;;4.57;1.23;;;;;;;;;;6280147;22;20379;-86
2021/06/16 08:14:11;;;;;;;6.93;1.40;;;;;;;;;;6251955;22;20173;-86
2021/06/16 08:16:48;;;;;;;9.70;1.27;;;;;;;;;;6281961;22;20083;-87
2021/06/16 08:19:15;;;;;;;9.10;1.42;;;;;;;;;;6258325;22;20027;-86
2021/06/16 08:21:42;;;;;;;5.90;1.30;;;;;;;;;;6282902;22;20033;-86
2021/06/16 08:24:09;;;;;;;6.25;0.95;;;;;;;;;;6255355;22;20034;-85
2021/06/16 08:26:36;;;;;;;3.90;1.25;;;;;;;;;;6281158;22;20023;-86
2021/06/16 08:29:02;;;;;;;5.88;1.27;;;;;;;;;;6252648;22;20249;-86
2021/06/16 08:31:29;;;;;;;4.95;1.02;;;;;;;;;;6252753;22;20016;-85
2021/06/16 08:33:56;;;;;;;5.88;1.30;;;;;;;;;;6279727;22;20385;-86
2021/06/16 08:36:22;;;;;;;6.18;1.40;;;;;;;;;;6250483;22;20091;-85
2021/06/16 08:38:49;;;;;;;6.28;1.13;;;;;;;;;;6250969;22;20110;-86
2021/06/16 08:41:16;;;;;;;6.63;1.83;;;;;;;;;;6281613;22;20078;-86
2021/06/16 08:43:44;;;;;;;4.63;1.48;;;;;;;;;;6283416;22;20247;-86
2021/06/16 08:46:11;;;;;;;5.18;1.52;;;;;;;;;;6285744;22;20024;-86
2021/06/16 08:48:39;;;;;;;8.75;1.58;;;;;;;;;;6278342;22;20401;-86
2021/06/16 08:51:07;;;;;;;5.88;1.15;;;;;;;;;;6250662;22;20274;-86
2021/06/16 08:53:33;;;;;;;10.77;1.30;;;;;;;;;;6293277;22;20038;-86
2021/06/16 08:56:11;;;;;;;5.72;1.52;;;;;;;;;;6266310;22;20024;-87
2021/06/16 08:58:39;;;;;;;4.50;1.80;;;;;;;;;;6283863;22;20031;-86
2021/06/16 09:01:06;;;;;;;6.03;0.93;;;;;;;;;;6251737;22;20302;-87
2021/06/16 09:03:34;;;;;;;13.85;2.10;;;;;;;;;;6277178;22;20179;-86
2021/06/16 09:06:08;;;;;;;3.35;1.20;;;;;;;;;;6250665;22;20139;-86
2021/06/16 09:08:57;;;;;;;11.55;2.55;;;;;;;;;;6252822;22;20194;-87
2021/06/16 09:11:25;;;;;;;6.40;1.48;;;;;;;;;;6245716;23;20024;-87
2021/06/16 09:14:09;;;;;;;4.38;1.15;;;;;;;;;;6247974;22;20052;-86
2021/06/16 09:16:42;;;;;;;4.80;1.50;;;;;;;;;;6247196;23;20287;-86
2021/06/16 09:19:18;;;;;;;3.35;1.52;;;;;;;;;;6247649;22;20030;-86
2021/06/16 09:21:45;;;;;;;8.77;1.30;;;;;;;;;;6247634;22;20410;-87
2021/06/16 09:24:24;;;;;;;3.60;1.00;;;;;;;;;;6251011;22;20215;-85
2021/06/16 09:26:51;;;;;;;8.73;1.42;;;;;;;;;;6249360;22;20024;-84
2021/06/16 09:29:30;;;;;;;4.32;1.25;;;;;;;;;;6255368;23;20038;-84
2021/06/16 09:32:04;;;;;;;3.92;1.00;;;;;;;;;;6253947;23;20205;-83
2021/06/16 09:34:33;;;;;;;6.53;1.30;;;;;;;;;;6255131;22;20035;-84
2021/06/16 09:37:04;;;;;;;6.18;1.23;;;;;;;;;;6255334;23;20043;-84
2021/06/16 09:39:31;;;;;;;3.30;1.63;;;;;;;;;;6224745;23;20024;-85
2021/06/16 09:42:03;;;;;;;4.78;1.10;;;;;;;;;;6251763;23;20028;-84
2021/06/16 09:44:37;;;;;;;5.95;1.20;;;;;;;;;;6250792;23;20024;-84
2021/06/16 09:47:23;;;;;;;4.75;1.73;;;;;;;;;;6247789;23;20410;-83
2021/06/16 09:50:00;;;;;;;4.93;1.25;;;;;;;;;;6253072;22;20024;-84
2021/06/16 09:52:47;;;;;;;5.85;1.30;;;;;;;;;;6261198;22;20024;-84
2021/06/16 09:55:13;;;;;;;2.65;0.95;;;;;;;;;;6256486;23;20024;-85
2021/06/16 09:57:58;;;;;;;4.43;1.25;;;;;;;;;;6253787;23;20017;-85
2021/06/16 10:00:30;;;;;;;5.38;1.50;;;;;;;;;;6253176;22;20078;-85
2021/06/16 10:03:21;;;;;;;7.30;1.20;;;;;;;;;;6247899;23;20047;-84
2021/06/16 10:06:02;;;;;;;4.75;1.38;;;;;;;;;;6251945;23;20086;-84
2021/06/16 10:08:37;;;;;;;7.40;1.23;;;;;;;;;;6254041;22;20035;-84
2021/06/16 10:11:05;;;;;;;6.32;1.40;;;;;;;;;;6239784;22;20061;-84
2021/06/16 10:13:36;;;;;;;3.92;1.20;;;;;;;;;;6245084;22;20028;-84
2021/06/16 10:16:08;;;;;;;6.03;1.17;;;;;;;;;;6250026;22;20023;-86
2021/06/16 10:18:42;;;;;;;5.63;1.20;;;;;;;;;;6224891;22;20462;-86
2021/06/16 10:21:10;;;;;;;3.25;1.08;;;;;;;;;;6240406;22;20030;-85
2021/06/16 10:23:37;;;;;;;3.75;1.17;;;;;;;;;;6256524;22;20345;-85
2021/06/16 10:26:09;;;;;;;5.78;1.38;;;;;;;;;;6258727;22;20075;-85
2021/06/16 10:28:49;;;;;;;5.22;1.10;;;;;;;;;;6285253;22;20116;-85
2021/06/16 10:31:21;;;;;;;6.10;1.65;;;;;;;;;;6284213;22;20027;-85
2021/06/16 10:33:56;;;;;;;3.53;1.25;;;;;;;;;;6256625;22;20027;-85
2021/06/16 10:36:23;;;;;;;3.30;1.05;;;;;;;;;;6283746;22;20401;-85
2021/06/16 10:39:03;;;;;;;4.97;1.23;;;;;;;;;;6260576;22;20010;-86
2021/06/16 10:41:47;;;;;;;2.47;0.82;;;;;;;;;;6283812;22;20023;-84
2021/06/16 10:44:21;;;;;;;9.20;1.98;;;;;;;;;;6281081;22;20051;-86
2021/06/16 10:46:53;;;;;;;5.75;1.30;;;;;;;;;;6276517;22;20093;-85
2021/06/16 10:49:50;;;;;;;5.05;1.40;;;;;;;;;;6283964;22;20058;-85
2021/06/16 10:52:18;;;;;;;4.53;1.25;;;;;;;;;;6254400;22;20102;-85
2021/06/16 10:55:05;;;;;;;6.38;1.40;;;;;;;;;;6278491;22;20081;-85
2021/06/16 10:57:35;;;;;;;3.72;1.30;;;;;;;;;;6281226;22;20253;-85
2021/06/16 11:00:06;;;;;;;5.00;1.30;;;;;;;;;;6283611;22;20054;-86
2021/06/16 11:02:34;;;;;;;8.75;1.60;;;;;;;;;;6285049;22;20027;-85
2021/06/16 11:05:20;;;;;;;4.55;1.33;;;;;;;;;;6286509;22;20380;-87
2021/06/16 11:07:47;;;;;;;3.83;0.85;;;;;;;;;;6254861;22;20027;-85
2021/06/16 11:10:15;;;;;;;3.97;0.90;;;;;;;;;;6256085;22;20035;-86
2021/06/16 11:12:44;;;;;;;4.47;1.05;;;;;;;;;;6281784;22;20027;-85
2021/06/16 11:15:30;;;;;;;4.05;1.00;;;;;;;;;;6282147;22;20028;-88
2021/06/16 11:18:02;;;;;;;3.22;1.15;;;;;;;;;;6257375;22;20083;-85
2021/06/16 11:20:56;;;;;;;3.40;1.23;;;;;;;;;;6261825;22;20069;-87
2021/06/16 11:23:27;;;;;;;3.60;1.00;;;;;;;;;;6280267;22;20538;-84
2021/06/16 11:26:28;;;;;;;4.65;1.55;;;;;;;;;;6255415;22;20024;-84
2021/06/16 11:28:55;;;;;;;6.05;1.15;;;;;;;;;;6257491;22;20047;-86
2021/06/16 11:31:54;;;;;;;4.47;1.30;;;;;;;;;;6287131;22;20051;-87
2021/06/16 11:34:40;;;;;;;3.53;1.15;;;;;;;;;;6287517;22;20020;-85
2021/06/16 11:37:39;;;;;;;4.05;0.95;;;;;;;;;;6253386;22;20027;-86
2021/06/16 11:40:06;;;;;;;5.05;1.40;;;;;;;;;;6279606;22;20023;-88
2021/06/16 11:42:38;;;;;;;6.10;1.40;;;;;;;;;;6280896;22;20237;-87
2021/06/16 11:45:13;;;;;;;4.50;1.17;;;;;;;;;;6286850;22;20087;-85
2021/06/16 11:47:40;;;;;;;4.05;1.45;;;;;;;;;;6277538;22;20039;-85
2021/06/16 11:50:24;;;;;;;7.20;1.40;;;;;;;;;;6232523;22;20071;-90
2021/06/16 11:52:57;;;;;;;3.58;1.08;;;;;;;;;;6284388;22;20071;-87
2021/06/16 11:55:43;;;;;;;4.72;1.13;;;;;;;;;;6259882;22;20106;-87
2021/06/16 11:58:39;;;;;;;5.75;1.40;;;;;;;;;;6292038;22;20039;-87
2021/06/16 12:01:28;;;;;;;3.50;1.30;;;;;;;;;;6230168;22;20047;-86
2021/06/16 12:03:59;;;;;;;5.78;1.45;;;;;;;;;;6255293;22;20283;-87
2021/06/16 12:06:26;;;;;;;6.20;1.77;;;;;;;;;;6279792;22;20023;-87
2021/06/16 12:09:00;;;;;;;5.93;1.73;;;;;;;;;;6277209;22;20046;-87
2021/06/16 12:11:31;;;;;;;5.78;1.50;;;;;;;;;;6278370;22;20103;-88
2021/06/16 12:14:07;;;;;;;4.80;1.58;;;;;;;;;;6256188;22;20062;-87
2021/06/16 12:16:40;;;;;;;6.18;1.70;;;;;;;;;;6282228;22;20075;-87
2021/06/16 12:19:07;;;;;;;2.55;1.30;;;;;;;;;;6282735;22;20550;-87
2021/06/16 12:21:34;;;;;;;4.38;1.30;;;;;;;;;;6293860;22;20015;-87
2021/06/16 12:27:31;;;;;;;6.15;1.50;;;;;;;;;;6284592;22;20350;-87
2021/06/16 12:30:01;;;;;;;5.18;1.80;;;;;;;;;;6282034;22;20025;-87
2021/06/16 12:32:34;;;;;;;11.02;1.67;;;;;;;;;;6288761;22;20031;-87
2021/06/16 12:38:54;;;;;;;9.77;1.48;;;;;;;;;;6290905;22;20316;-86
2021/06/16 12:41:26;;;;;;;5.38;1.92;;;;;;;;;;6259816;22;20023;-84
2021/06/16 12:44:12;;;;;;;7.05;1.92;;;;;;;;;;6260703;22;20027;-86
2021/06/16 12:46:58;;;;;;;5.55;1.80;;;;;;;;;;6285522;22;20091;-86
2021/06/16 12:49:31;;;;;;;4.35;1.83;;;;;;;;;;6286042;22;20223;-86
2021/06/16 12:52:02;;;;;;;9.73;2.00;;;;;;;;;;6287925;22;20027;-86
2021/06/16 12:54:47;;;;;;;5.45;2.47;;;;;;;;;;6261996;22;20054;-86
2021/06/16 12:57:19;;;;;;;8.43;1.88;;;;;;;;;;6258712;22;20067;-86
2021/06/16 12:59:45;;;;;;;7.60;1.98;;;;;;;;;;6280885;22;20028;-86
2021/06/16 13:02:37;;;;;;;4.93;1.73;;;;;;;;;;6288739;22;20305;-86
2021/06/16 13:05:06;;;;;;;7.15;2.38;;;;;;;;;;6288811;22;20102;-85
2021/06/16 13:07:43;;;;;;;6.25;2.60;;;;;;;;;;6261082;22;20120;-85
2021/06/16 13:10:36;;;;;;;6.68;2.33;;;;;;;;;;6261891;22;20023;-85
2021/06/16 13:13:03;;;;;;;5.05;2.40;;;;;;;;;;6227920;23;20018;-86
2021/06/16 13:15:39;;;;;;;9.13;2.10;;;;;;;;;;6253191;23;20087;-87
2021/06/16 13:18:06;;;;;;;9.15;2.50;;;;;;;;;;6220765;23;20028;-87
2021/06/16 13:20:33;;;;;;;5.65;2.30;;;;;;;;;;6219580;23;20078;-86
2021/06/16 13:23:20;;;;;;;4.60;2.40;;;;;;;;;;6250657;23;20032;-86
2021/06/16 13:25:49;;;;;;;5.20;2.15;;;;;;;;;;6236343;23;20048;-86
2021/06/16 13:28:36;;;;;;;3.33;2.13;;;;;;;;;;6234562;23;20031;-86
2021/06/16 13:31:18;;;;;;;3.22;1.55;;;;;;;;;;6222578;23;20086;-87
2021/06/16 13:33:46;;;;;;;4.78;2.35;;;;;;;;;;6221618;23;20035;-87
2021/06/16 13:36:23;;;;;;;6.30;2.42;;;;;;;;;;6227033;23;20055;-87
2021/06/16 13:38:54;;;;;;;6.28;2.63;;;;;;;;;;6198297;23;20016;-87
2021/06/16 13:41:22;;;;;;;6.07;2.47;;;;;;;;;;6251219;23;20028;-85
2021/06/16 13:43:52;;;;;;;6.93;2.67;;;;;;;;;;6255256;23;20253;-85
2021/06/16 13:46:18;;;;;;;6.78;2.83;;;;;;;;;;6228842;23;20028;-87
2021/06/16 13:48:45;;;;;;;8.85;2.72;;;;;;;;;;6228855;23;20028;-87
2021/06/16 13:51:18;;;;;;;5.55;2.90;;;;;;;;;;6228636;23;20052;-87
2021/06/16 13:53:45;;;;;;;4.00;2.83;;;;;;;;;;6254879;23;20024;-87
2021/06/16 13:56:12;;;;;;;4.82;2.58;;;;;;;;;;6226817;23;20020;-87
2021/06/16 13:58:39;;;;;;;8.70;3.38;;;;;;;;;;6224235;23;20034;-86
2021/06/16 14:01:06;;;;;;;4.50;2.65;;;;;;;;;;6232124;23;20054;-87
2021/06/16 14:03:32;;;;;;;6.22;3.10;;;;;;;;;;6255786;23;20051;-88
2021/06/16 14:06:15;;;;;;;5.45;3.00;;;;;;;;;;6230098;23;20068;-88
2021/06/16 14:08:42;;;;;;;6.82;3.00;;;;;;;;;;6224883;23;20080;-86
2021/06/16 14:11:09;;;;;;;8.68;3.13;;;;;;;;;;6255900;22;20241;-87
2021/06/16 14:13:35;;;;;;;11.27;3.58;;;;;;;;;;6282024;22;20031;-88
2021/06/16 14:16:28;;;;;;;7.78;2.88;;;;;;;;;;6294199;22;20173;-87
2021/06/16 14:18:58;;;;;;;7.68;3.20;;;;;;;;;;6259415;22;20023;-87
2021/06/16 14:21:24;;;;;;;6.70;3.28;;;;;;;;;;6285129;22;20024;-87
2021/06/16 14:24:10;;;;;;;6.97;3.50;;;;;;;;;;6284950;22;20406;-87
2021/06/16 14:26:37;;;;;;;7.30;3.75;;;;;;;;;;6252454;22;20059;-87
2021/06/16 14:29:04;;;;;;;7.70;3.42;;;;;;;;;;6254981;22;20023;-87
2021/06/16 14:31:30;;;;;;;8.18;3.38;;;;;;;;;;6257408;22;20019;-88
2021/06/16 14:34:08;;;;;;;9.85;3.00;;;;;;;;;;6256263;22;20023;-87
2021/06/16 14:36:34;;;;;;;8.80;4.00;;;;;;;;;;6258650;22;20028;-86
2021/06/16 14:39:01;;;;;;;11.20;4.00;;;;;;;;;;6257640;22;20204;-87
2021/06/16 14:41:27;;;;;;;5.57;3.78;;;;;;;;;;6257362;22;20028;-87
2021/06/16 14:43:54;;;;;;;6.63;3.40;;;;;;;;;;6287214;22;20027;-86
2021/06/16 14:46:21;;;;;;;10.00;2.97;;;;;;;;;;6263504;22;20028;-85
2021/06/16 14:49:03;;;;;;;6.85;3.75;;;;;;;;;;6266550;22;20207;-86
2021/06/16 14:51:30;;;;;;;6.95;3.53;;;;;;;;;;6290936;22;20314;-88
2021/06/16 14:53:57;;;;;;;8.07;3.25;;;;;;;;;;6288961;22;20163;-87
2021/06/16 14:56:24;;;;;;;9.07;3.55;;;;;;;;;;6287176;22;20305;-86
2021/06/16 14:58:51;;;;;;;10.98;3.63;;;;;;;;;;6283503;22;20024;-87
2021/06/16 15:01:18;;;;;;;6.57;3.42;;;;;;;;;;6260699;22;20026;-86
2021/06/16 15:04:22;;;;;;;5.93;3.80;;;;;;;;;;6264051;22;20073;-86
2021/06/16 15:06:49;;;;;;;7.97;3.63;;;;;;;;;;6259001;22;20024;-87